createdAt,value
2018-04-27T00:00:02.604Z,12.43
2018-04-27T00:02:30.009Z,13.03
2018-04-27T00:04:57.589Z,13.00
2018-04-27T00:07:24.996Z,12.90
2018-04-27T00:09:52.400Z,12.60
2018-04-27T00:12:19.831Z,13.57
2018-04-27T00:14:47.232Z,14.50
2018-04-27T00:17:14.648Z,13.13
2018-04-27T00:19:42.060Z,14.27
2018-04-27T00:22:09.501Z,13.07
2018-04-27T00:24:36.904Z,14.37
2018-04-27T00:27:04.338Z,13.17
2018-04-27T00:29:31.773Z,14.70
2018-04-27T00:31:59.180Z,14.60
2018-04-27T00:34:26.957Z,13.83
2018-04-27T00:36:54.319Z,12.67
2018-04-27T00:39:21.720Z,13.90
2018-04-27T00:41:49.144Z,12.50
2018-04-27T00:44:16.549Z,11.03
2018-04-27T00:46:43.973Z,11.07
2018-04-27T00:49:11.380Z,11.00
2018-04-27T00:51:39.117Z,11.87
2018-04-27T00:54:06.522Z,12.10
2018-04-27T00:56:33.924Z,11.90
2018-04-27T00:59:01.351Z,12.97
2018-04-27T01:01:28.747Z,13.30
2018-04-27T01:03:56.148Z,12.87
2018-04-27T01:06:24.375Z,13.40
2018-04-27T01:08:51.789Z,12.97
2018-04-27T01:11:19.204Z,11.33
2018-04-27T01:13:46.608Z,10.70
2018-04-27T01:16:14.311Z,11.83
2018-04-27T01:18:41.725Z,12.30
2018-04-27T01:21:09.136Z,13.93
2018-04-27T01:23:36.810Z,11.60
2018-04-27T01:26:04.209Z,12.97
2018-04-27T01:28:31.612Z,13.40
2018-04-27T01:30:59.029Z,12.53
2018-04-27T01:33:26.608Z,11.87
2018-04-27T01:35:54.012Z,10.80
2018-04-27T01:38:21.423Z,12.53
2018-04-27T01:40:48.835Z,11.00
2018-04-27T01:43:16.279Z,11.43
2018-04-27T01:45:43.692Z,10.87
2018-04-27T01:48:11.113Z,12.40
2018-04-27T01:50:38.532Z,12.53
2018-04-27T01:53:05.959Z,12.70
2018-04-27T01:55:33.387Z,11.50
2018-04-27T01:58:00.800Z,11.47
2018-04-27T02:00:28.216Z,13.37
2018-04-27T02:02:55.644Z,11.57
2018-04-27T02:05:23.068Z,9.67
2018-04-27T02:07:50.503Z,10.60
2018-04-27T02:10:17.908Z,10.33
2018-04-27T02:12:45.340Z,9.83
2018-04-27T02:15:12.768Z,10.03
2018-04-27T02:17:40.203Z,12.10
2018-04-27T02:20:07.616Z,11.27
2018-04-27T02:22:35.036Z,11.83
2018-04-27T02:25:02.445Z,10.57
2018-04-27T02:27:29.999Z,11.10
2018-04-27T02:29:57.414Z,11.13
2018-04-27T02:32:24.829Z,10.50
2018-04-27T02:34:52.258Z,11.10
2018-04-27T02:37:19.664Z,9.93
2018-04-27T02:39:47.077Z,9.87
2018-04-27T02:42:14.479Z,11.33
2018-04-27T02:44:41.887Z,12.47
2018-04-27T02:47:09.300Z,11.97
2018-04-27T02:49:36.713Z,11.70
2018-04-27T02:52:04.133Z,11.80
2018-04-27T02:54:31.526Z,9.90
2018-04-27T02:56:58.940Z,10.60
2018-04-27T02:59:26.363Z,10.50
2018-04-27T03:01:53.764Z,11.70
2018-04-27T03:04:21.171Z,10.73
2018-04-27T03:06:48.601Z,11.33
2018-04-27T03:09:16.014Z,11.30
2018-04-27T03:11:43.417Z,12.27
2018-04-27T03:14:10.853Z,12.03
2018-04-27T03:16:38.260Z,11.43
2018-04-27T03:19:05.671Z,10.23
2018-04-27T03:21:33.112Z,10.97
2018-04-27T03:24:00.679Z,10.53
2018-04-27T03:26:27.945Z,9.00
2018-04-27T03:28:55.348Z,9.70
2018-04-27T03:31:23.016Z,10.03
2018-04-27T03:33:50.433Z,10.67
2018-04-27T03:36:17.837Z,9.57
2018-04-27T03:38:45.254Z,9.27
2018-04-27T03:41:12.677Z,10.07
2018-04-27T03:43:40.475Z,10.50
2018-04-27T03:46:07.897Z,10.33
2018-04-27T03:48:35.307Z,9.07
2018-04-27T03:51:02.737Z,9.67
2018-04-27T03:53:30.157Z,9.40
2018-04-27T03:55:57.568Z,9.30
2018-04-27T03:58:25.237Z,9.07
2018-04-27T04:01:04.889Z,8.50
2018-04-27T04:06:35.799Z,9.17
2018-04-27T04:09:03.467Z,9.73
2018-04-27T04:11:30.868Z,10.80
2018-04-27T04:13:58.276Z,10.00
2018-04-27T04:16:25.699Z,10.23
2018-04-27T04:18:53.115Z,13.97
2018-04-27T04:21:20.529Z,13.77
2018-04-27T04:23:48.100Z,13.93
2018-04-27T04:26:15.516Z,10.60
2018-04-27T04:28:42.940Z,9.70
2018-04-27T04:31:10.386Z,9.73
2018-04-27T04:33:37.804Z,10.03
2018-04-27T04:36:05.215Z,9.60
2018-04-27T04:38:32.794Z,10.40
2018-04-27T04:41:00.219Z,9.97
2018-04-27T04:43:27.627Z,8.37
2018-04-27T04:45:55.051Z,10.33
2018-04-27T04:48:22.464Z,9.90
2018-04-27T04:50:49.883Z,9.37
2018-04-27T04:53:17.548Z,10.03
2018-04-27T04:55:44.968Z,8.77
2018-04-27T04:58:12.368Z,9.77
2018-04-27T05:00:39.771Z,10.80
2018-04-27T05:03:07.190Z,10.60
2018-04-27T05:05:34.852Z,9.67
2018-04-27T05:08:02.252Z,9.70
2018-04-27T05:10:29.678Z,8.70
2018-04-27T05:12:57.097Z,9.27
2018-04-27T05:15:24.499Z,9.23
2018-04-27T05:17:51.930Z,8.67
2018-04-27T05:20:18.803Z,9.50
2018-04-27T05:22:46.220Z,8.33
2018-04-27T05:25:13.628Z,8.87
2018-04-27T05:27:41.060Z,9.13
2018-04-27T05:30:08.463Z,8.03
2018-04-27T05:32:35.888Z,8.57
2018-04-27T05:35:03.326Z,7.90
2018-04-27T05:37:30.718Z,7.27
2018-04-27T05:39:58.152Z,7.33
2018-04-27T05:42:25.919Z,7.73
2018-04-27T05:44:53.320Z,7.27
2018-04-27T05:47:20.739Z,6.90
2018-04-27T05:49:48.143Z,7.10
2018-04-27T05:52:15.715Z,7.03
2018-04-27T05:54:43.125Z,6.27
2018-04-27T05:57:10.524Z,5.70
2018-04-27T05:59:37.948Z,6.20
2018-04-27T06:02:05.347Z,5.73
2018-04-27T06:04:32.794Z,5.50
2018-04-27T06:07:00.172Z,5.80
2018-04-27T06:09:27.572Z,5.63
2018-04-27T06:11:55.001Z,6.17
2018-04-27T06:14:22.395Z,5.80
2018-04-27T06:16:49.800Z,5.57
2018-04-27T06:19:17.225Z,6.28
2018-04-27T06:21:44.637Z,4.95
2018-04-27T06:24:12.035Z,5.50
2018-04-27T06:26:39.481Z,5.50
2018-04-27T06:29:06.892Z,4.90
2018-04-27T06:31:34.301Z,4.93
2018-04-27T06:34:01.727Z,6.12
2018-04-27T06:36:29.128Z,5.50
2018-04-27T06:38:56.549Z,4.97
2018-04-27T06:41:23.961Z,4.62
2018-04-27T06:43:51.652Z,4.90
2018-04-27T06:46:19.054Z,5.32
2018-04-27T06:48:46.587Z,4.97
2018-04-27T06:51:14.016Z,4.65
2018-04-27T06:53:41.418Z,5.32
2018-04-27T06:56:08.850Z,5.12
2018-04-27T06:58:36.272Z,4.80
2018-04-27T07:01:03.680Z,5.78
2018-04-27T07:03:31.350Z,4.43
2018-04-27T07:05:58.748Z,4.68
2018-04-27T07:08:26.159Z,5.85
2018-04-27T07:10:53.585Z,5.18
2018-04-27T07:13:20.993Z,5.12
2018-04-27T07:15:48.404Z,3.95
2018-04-27T07:18:15.820Z,5.00
2018-04-27T07:20:43.228Z,4.28
2018-04-27T07:23:10.652Z,4.25
2018-04-27T07:25:38.425Z,4.93
2018-04-27T07:28:05.838Z,5.45
2018-04-27T07:30:33.249Z,5.25
2018-04-27T07:33:00.671Z,5.93
2018-04-27T07:35:28.075Z,4.75
2018-04-27T07:37:55.496Z,5.12
2018-04-27T07:40:22.920Z,4.53
2018-04-27T07:42:50.339Z,5.18
2018-04-27T07:45:17.797Z,4.87
2018-04-27T07:47:45.160Z,4.68
2018-04-27T07:50:12.916Z,4.62
2018-04-27T07:52:40.325Z,5.30
2018-04-27T07:55:07.731Z,5.12
2018-04-27T07:57:35.172Z,4.72
2018-04-27T08:00:02.575Z,4.18
2018-04-27T08:02:30.006Z,4.55
2018-04-27T08:04:57.463Z,5.00
2018-04-27T08:07:24.860Z,5.55
2018-04-27T08:09:52.297Z,6.25
2018-04-27T08:12:20.144Z,5.60
2018-04-27T08:14:47.573Z,5.18
2018-04-27T08:17:14.989Z,5.00
2018-04-27T08:19:42.421Z,4.80
2018-04-27T08:22:09.828Z,4.07
2018-04-27T08:24:37.285Z,4.47
2018-04-27T08:27:04.703Z,4.10
2018-04-27T08:29:32.115Z,3.83
2018-04-27T08:31:59.548Z,4.00
2018-04-27T08:34:26.951Z,4.73
2018-04-27T08:36:54.403Z,4.37
2018-04-27T08:39:21.832Z,3.80
2018-04-27T08:41:49.240Z,4.00
2018-04-27T08:44:16.687Z,3.53
2018-04-27T08:46:44.085Z,3.40
2018-04-27T08:49:11.504Z,3.53
2018-04-27T08:51:38.904Z,3.93
2018-04-27T08:54:06.354Z,4.00
2018-04-27T08:56:33.751Z,4.00
2018-04-27T08:59:01.152Z,3.80
2018-04-27T09:01:28.593Z,3.40
2018-04-27T09:03:55.992Z,4.37
2018-04-27T09:06:24.201Z,3.93
2018-04-27T09:08:51.580Z,4.83
2018-04-27T09:11:19.333Z,3.93
2018-04-27T09:13:46.733Z,3.40
2018-04-27T09:16:14.213Z,3.43
2018-04-27T09:18:41.560Z,3.63
2018-04-27T09:21:08.967Z,3.10
2018-04-27T09:23:36.371Z,3.00
2018-04-27T09:26:04.028Z,3.40
2018-04-27T09:28:31.464Z,3.40
2018-04-27T09:30:58.867Z,2.90
2018-04-27T09:33:26.496Z,4.50
2018-04-27T09:35:54.241Z,3.33
2018-04-27T09:38:21.641Z,3.93
2018-04-27T09:40:49.105Z,3.00
2018-04-27T09:43:16.677Z,3.23
2018-04-27T09:45:44.148Z,3.60
2018-04-27T09:48:11.573Z,3.80
2018-04-27T09:50:39.027Z,3.70
2018-04-27T09:53:06.469Z,3.70
2018-04-27T09:55:33.887Z,3.80
2018-04-27T09:58:01.413Z,3.30
2018-04-27T10:00:28.827Z,3.30
2018-04-27T10:02:56.232Z,3.93
2018-04-27T10:05:23.992Z,5.13
2018-04-27T10:07:51.399Z,4.20
2018-04-27T10:10:18.808Z,3.83
2018-04-27T10:12:46.229Z,3.70
2018-04-27T10:15:14.322Z,3.60
2018-04-27T10:17:41.953Z,3.80
2018-04-27T10:20:09.360Z,4.23
2018-04-27T10:22:36.768Z,3.67
2018-04-27T10:25:04.464Z,3.73
2018-04-27T10:27:32.088Z,3.63
2018-04-27T10:29:59.649Z,3.90
2018-04-27T10:32:27.104Z,5.43
2018-04-27T10:34:54.500Z,4.43
2018-04-27T10:37:22.495Z,3.43
2018-04-27T10:39:49.915Z,3.73
2018-04-27T10:42:17.352Z,3.97
2018-04-27T10:44:44.776Z,4.47
2018-04-27T10:47:12.181Z,3.40
2018-04-27T10:49:39.596Z,3.80
2018-04-27T10:52:07.060Z,3.17
2018-04-27T10:54:34.464Z,3.30
2018-04-27T10:57:01.868Z,3.13
2018-04-27T10:59:30.286Z,3.57
2018-04-27T11:01:57.700Z,3.80
2018-04-27T11:04:25.132Z,3.17
2018-04-27T11:06:52.552Z,4.13
2018-04-27T11:09:19.961Z,4.13
2018-04-27T11:11:47.372Z,4.10
2018-04-27T11:14:14.808Z,4.50
2018-04-27T11:16:42.287Z,2.90
2018-04-27T11:19:09.637Z,4.37
2018-04-27T11:21:37.069Z,3.03
2018-04-27T11:24:04.467Z,4.33
2018-04-27T11:26:32.157Z,3.30
2018-04-27T11:28:59.583Z,3.50
2018-04-27T11:31:26.994Z,4.43
2018-04-27T11:33:54.468Z,4.20
2018-04-27T11:36:21.887Z,4.07
2018-04-27T11:38:49.299Z,3.07
2018-04-27T11:41:16.754Z,3.13
2018-04-27T11:43:44.162Z,3.50
2018-04-27T11:46:11.621Z,3.50
2018-04-27T11:48:39.026Z,3.90
2018-04-27T11:51:06.717Z,3.50
2018-04-27T11:53:34.152Z,3.20
2018-04-27T11:56:01.575Z,3.27
2018-04-27T11:58:29.222Z,3.30
2018-04-27T12:00:56.624Z,3.43
2018-04-27T12:03:24.023Z,3.50
2018-04-27T12:05:51.729Z,3.13
2018-04-27T12:08:19.148Z,4.33
2018-04-27T12:10:46.588Z,3.37
2018-04-27T12:13:14.007Z,3.13
2018-04-27T12:15:41.428Z,3.53
2018-04-27T12:18:08.866Z,3.07
2018-04-27T12:20:36.556Z,2.83
2018-04-27T12:23:03.978Z,2.97
2018-04-27T12:25:31.383Z,2.67
2018-04-27T12:27:58.818Z,2.93
2018-04-27T12:30:26.219Z,3.70
2018-04-27T12:32:53.648Z,2.93
2018-04-27T12:35:21.073Z,3.20
2018-04-27T12:37:48.484Z,2.80
2018-04-27T12:40:15.887Z,2.90
2018-04-27T12:42:43.312Z,3.30
2018-04-27T12:45:10.721Z,3.57
2018-04-27T12:47:38.157Z,3.40
2018-04-27T12:50:05.557Z,3.13
2018-04-27T12:52:32.963Z,2.97
2018-04-27T12:55:00.628Z,3.17
2018-04-27T12:57:28.025Z,2.70
2018-04-27T12:59:55.423Z,2.80
2018-04-27T13:02:22.884Z,3.43
2018-04-27T13:04:50.300Z,3.87
2018-04-27T13:07:17.720Z,2.77
2018-04-27T13:09:45.119Z,3.00
2018-04-27T13:12:12.514Z,2.90
2018-04-27T13:14:39.925Z,2.67
2018-04-27T13:17:07.332Z,2.80
2018-04-27T13:19:34.739Z,3.90
2018-04-27T13:22:02.140Z,2.80
2018-04-27T13:24:29.652Z,4.00
2018-04-27T13:26:57.040Z,3.13
2018-04-27T13:29:24.447Z,2.93
2018-04-27T13:31:51.868Z,2.63
2018-04-27T13:34:19.284Z,3.37
2018-04-27T13:36:46.688Z,3.60
2018-04-27T13:39:14.127Z,4.10
2018-04-27T13:41:41.532Z,3.87
2018-04-27T13:44:08.964Z,3.10
2018-04-27T13:46:36.826Z,3.13
2018-04-27T13:49:04.276Z,3.07
2018-04-27T13:51:31.865Z,2.77
2018-04-27T13:53:59.338Z,3.33
2018-04-27T13:56:26.860Z,2.77
2018-04-27T13:58:54.260Z,2.93
2018-04-27T14:01:21.808Z,3.33
2018-04-27T14:03:49.440Z,2.87
2018-04-27T14:06:16.856Z,2.93
2018-04-27T14:08:44.255Z,2.60
2018-04-27T14:11:11.734Z,2.57
2018-04-27T14:13:39.090Z,2.27
2018-04-27T14:16:06.819Z,2.37
2018-04-27T14:18:34.265Z,2.73
2018-04-27T14:21:01.682Z,2.70
2018-04-27T14:23:29.194Z,2.53
2018-04-27T14:25:56.604Z,2.90
2018-04-27T14:28:24.039Z,2.60
2018-04-27T14:30:51.491Z,2.37
2018-04-27T14:33:18.900Z,2.77
2018-04-27T14:35:46.329Z,3.03
2018-04-27T14:38:14.688Z,2.80
2018-04-27T14:40:42.103Z,2.83
2018-04-27T14:43:09.606Z,3.87
2018-04-27T14:45:37.021Z,3.23
2018-04-27T14:48:04.443Z,2.50
2018-04-27T14:50:31.864Z,3.40
2018-04-27T14:52:59.290Z,3.57
2018-04-27T14:55:27.901Z,2.77
2018-04-27T14:57:55.769Z,2.67
2018-04-27T15:00:23.236Z,2.40
2018-04-27T15:02:50.689Z,3.17
2018-04-27T15:05:18.115Z,3.07
2018-04-27T15:07:45.564Z,2.47
2018-04-27T15:10:12.967Z,2.57
2018-04-27T15:12:40.377Z,2.50
2018-04-27T15:15:07.795Z,2.87
2018-04-27T15:17:35.208Z,3.63
2018-04-27T15:20:02.609Z,2.70
2018-04-27T15:22:30.038Z,2.67
2018-04-27T15:24:57.505Z,3.37
2018-04-27T15:27:24.856Z,2.80
2018-04-27T15:29:52.260Z,2.83
2018-04-27T15:32:19.680Z,2.60
2018-04-27T15:34:47.108Z,3.60
2018-04-27T15:37:14.532Z,2.93
2018-04-27T15:39:41.947Z,3.17
2018-04-27T15:42:09.362Z,2.23
2018-04-27T15:44:36.792Z,3.10
2018-04-27T15:47:04.196Z,3.00
2018-04-27T15:49:31.860Z,3.93
2018-04-27T15:51:59.301Z,2.90
2018-04-27T15:54:26.699Z,3.37
2018-04-27T15:56:54.516Z,3.30
2018-04-27T15:59:21.908Z,3.40
2018-04-27T16:01:49.342Z,3.33
2018-04-27T16:04:16.731Z,2.77
2018-04-27T16:06:44.129Z,3.10
2018-04-27T16:09:11.625Z,2.87
2018-04-27T16:11:38.968Z,3.37
2018-04-27T16:14:06.724Z,3.10
2018-04-27T16:16:34.152Z,2.93
2018-04-27T16:19:02.338Z,3.43
2018-04-27T16:21:29.760Z,3.40
2018-04-27T16:23:58.064Z,4.27
2018-04-27T16:26:25.464Z,3.27
2018-04-27T16:28:52.932Z,3.93
2018-04-27T16:31:20.341Z,3.53
2018-04-27T16:33:47.734Z,3.80
2018-04-27T16:36:15.403Z,3.33
2018-04-27T16:38:42.808Z,2.90
2018-04-27T16:41:10.212Z,3.20
2018-04-27T16:43:37.629Z,3.07
2018-04-27T16:46:05.037Z,3.50
2018-04-27T16:48:32.436Z,4.30
2018-04-27T16:50:59.981Z,3.90
2018-04-27T16:53:27.381Z,3.90
2018-04-27T16:55:54.795Z,4.00
2018-04-27T16:58:22.198Z,3.40
2018-04-27T17:00:49.633Z,4.13
2018-04-27T17:03:17.049Z,3.30
2018-04-27T17:05:44.460Z,3.40
2018-04-27T17:08:12.186Z,4.13
2018-04-27T17:10:39.591Z,3.33
2018-04-27T17:13:06.991Z,3.90
2018-04-27T17:15:34.417Z,3.67
2018-04-27T17:18:01.812Z,3.30
2018-04-27T17:20:29.223Z,3.67
2018-04-27T17:22:56.684Z,4.00
2018-04-27T17:25:24.089Z,3.67
2018-04-27T17:27:51.620Z,4.23
2018-04-27T17:30:19.050Z,3.10
2018-04-27T17:32:46.792Z,3.70
2018-04-27T17:35:14.355Z,3.33
2018-04-27T17:37:41.748Z,4.07
2018-04-27T17:40:09.164Z,4.00
2018-04-27T17:42:36.855Z,3.53
2018-04-27T17:45:04.260Z,3.50
2018-04-27T17:47:31.683Z,3.73
2018-04-27T17:49:59.083Z,3.33
2018-04-27T17:52:26.484Z,3.20
2018-04-27T17:54:53.885Z,3.43
2018-04-27T17:57:21.284Z,3.17
2018-04-27T17:59:48.708Z,4.13
2018-04-27T18:02:16.112Z,3.73
2018-04-27T18:04:43.551Z,3.63
2018-04-27T18:07:10.971Z,3.23
2018-04-27T18:09:38.394Z,3.83
2018-04-27T18:12:06.055Z,3.07
2018-04-27T18:14:33.299Z,3.67
2018-04-27T18:17:00.696Z,3.63
2018-04-27T18:19:28.120Z,3.70
2018-04-27T18:21:55.567Z,3.17
2018-04-27T18:24:23.023Z,3.70
2018-04-27T18:26:50.412Z,3.70
2018-04-27T18:29:17.858Z,4.37
2018-04-27T18:31:45.269Z,3.87
2018-04-27T18:34:12.698Z,4.07
2018-04-27T18:36:40.097Z,4.17
2018-04-27T18:39:07.545Z,3.77
2018-04-27T18:41:34.973Z,3.80
2018-04-27T18:44:02.401Z,3.47
2018-04-27T18:46:29.810Z,4.57
2018-04-27T18:48:57.476Z,3.53
2018-04-27T18:51:24.896Z,3.77
2018-04-27T18:53:52.352Z,3.53
2018-04-27T18:56:22.113Z,3.50
2018-04-27T18:58:52.933Z,3.50
2018-04-27T19:01:20.417Z,3.77
2018-04-27T19:03:47.763Z,3.60
2018-04-27T19:06:15.172Z,3.33
2018-04-27T19:08:42.575Z,3.30
2018-04-27T19:11:10.274Z,3.10
2018-04-27T19:13:37.727Z,3.10
2018-04-27T19:16:05.125Z,3.33
2018-04-27T19:18:32.540Z,3.37
2018-04-27T19:20:59.932Z,3.90
2018-04-27T19:23:30.336Z,3.73
2018-04-27T19:25:58.459Z,3.77
2018-04-27T19:28:30.176Z,4.00
2018-04-27T19:30:58.520Z,4.17
2018-04-27T19:33:25.944Z,3.90
2018-04-27T19:35:53.392Z,3.90
2018-04-27T19:38:20.816Z,5.97
2018-04-27T19:40:48.253Z,4.97
2018-04-27T19:43:15.684Z,4.67
2018-04-27T19:45:43.110Z,4.63
2018-04-27T19:48:10.588Z,5.07
2018-04-27T19:50:38.035Z,4.20
2018-04-27T19:53:05.481Z,4.50
2018-04-27T19:55:32.902Z,3.70
2018-04-27T19:58:00.305Z,4.03
2018-04-27T20:00:28.640Z,3.70
2018-04-27T20:02:56.059Z,3.80
2018-04-27T20:05:23.499Z,4.17
2018-04-27T20:07:51.211Z,4.23
2018-04-27T20:10:19.395Z,4.00
2018-04-27T20:12:46.796Z,3.63
2018-04-27T20:15:14.215Z,4.13
2018-04-27T20:17:44.323Z,4.63
2018-04-27T20:20:29.571Z,5.23
2018-04-27T20:22:56.972Z,5.10
2018-04-27T20:25:24.420Z,4.63
2018-04-27T20:27:51.903Z,4.33
2018-04-27T20:30:19.300Z,4.43
2018-04-27T20:32:47.292Z,5.93
2018-04-27T20:35:15.587Z,5.20
2018-04-27T20:37:43.044Z,5.00
2018-04-27T20:40:12.254Z,4.93
2018-04-27T20:42:44.335Z,5.23
2018-04-27T20:45:20.874Z,5.90
2018-04-27T20:47:48.605Z,6.17
2018-04-27T20:50:16.060Z,5.53
2018-04-27T20:52:43.512Z,4.40
2018-04-27T20:55:16.875Z,5.33
2018-04-27T20:57:44.828Z,5.20
2018-04-27T21:00:12.307Z,4.93
2018-04-27T21:02:43.565Z,5.80
2018-04-27T21:05:11.022Z,6.20
2018-04-27T21:07:38.482Z,6.13
2018-04-27T21:10:06.053Z,5.73
2018-04-27T21:12:35.108Z,5.73
2018-04-27T21:15:06.418Z,4.90
2018-04-27T21:17:34.151Z,6.13
2018-04-27T21:20:01.614Z,5.83
2018-04-27T21:22:29.351Z,5.10
2018-04-27T21:24:56.811Z,6.20
2018-04-27T21:27:24.251Z,5.57
2018-04-27T21:29:51.776Z,5.23
2018-04-27T21:32:19.233Z,5.60
2018-04-27T21:34:46.763Z,6.27
2018-04-27T21:37:14.199Z,5.77
2018-04-27T21:39:41.630Z,5.87
2018-04-27T21:42:20.892Z,6.00
2018-04-27T21:44:57.397Z,6.90
2018-04-27T21:47:29.214Z,6.30
2018-04-27T21:49:58.591Z,5.83
2018-04-27T21:52:31.872Z,6.17
2018-04-27T21:54:59.782Z,6.13
2018-04-27T21:57:35.491Z,6.77
2018-04-27T22:00:05.677Z,7.27
2018-04-27T22:02:36.101Z,8.47
2018-04-27T22:08:00.265Z,7.00
2018-04-27T22:10:28.062Z,6.87
2018-04-27T22:12:56.263Z,7.13
2018-04-27T22:15:24.244Z,8.67
2018-04-27T22:17:51.659Z,7.43
2018-04-27T22:20:20.536Z,7.10
2018-04-27T22:22:47.957Z,6.83
2018-04-27T22:25:27.783Z,6.87
2018-04-27T22:28:03.848Z,6.77
2018-04-27T22:30:34.238Z,6.97
2018-04-27T22:36:19.507Z,6.83
2018-04-27T22:41:59.220Z,5.97
2018-04-27T22:44:27.455Z,7.10
2018-04-27T22:46:54.860Z,6.70
2018-04-27T22:49:22.287Z,8.13
2018-04-27T22:51:49.704Z,8.17
2018-04-27T22:57:16.871Z,7.40
2018-04-27T22:59:45.731Z,7.83
2018-04-27T23:02:19.737Z,6.83
2018-04-27T23:04:49.719Z,7.10
2018-04-27T23:07:23.766Z,6.50
2018-04-27T23:09:54.685Z,6.13
2018-04-27T23:12:22.095Z,6.57
2018-04-27T23:14:50.395Z,6.17
2018-04-27T23:17:17.807Z,6.30
2018-04-27T23:19:50.821Z,6.47
2018-04-27T23:22:30.260Z,6.47
2018-04-27T23:27:58.221Z,7.10
2018-04-27T23:30:25.655Z,6.20
2018-04-27T23:32:53.069Z,8.07
2018-04-27T23:35:21.161Z,6.93
2018-04-27T23:37:48.574Z,6.87
2018-04-27T23:40:16.037Z,7.90
2018-04-27T23:42:44.265Z,6.87
2018-04-27T23:45:11.684Z,6.90
2018-04-27T23:47:39.355Z,7.17
2018-04-27T23:50:06.768Z,6.77
2018-04-27T23:52:34.190Z,7.40
2018-04-27T23:55:01.620Z,6.73
2018-04-27T23:57:31.572Z,7.20
